KAMN/AMN METAR and TAF weather

Enter ICAO airport designator
Station Type Date Time Source
KAMN METAR 2018/01/22 11:59 UTC NOAA

KAMN 221159Z AUTO 07013KT 1 1/2SM -RA OVC002 02/02 A2987 RMK AO2 T00200020 10022 20018


Station Type Date Time Source
KAMN Decoded METAR 2018/01/22 11:59 UTC NOAA

Alma, Gratiot Community Airport, MI, United States (KAMN) 43-19-19N 084-41-16W
Jan 22, 2018 - 06:59 AM EST / 2018.01.22 1159 UTC
Wind: from the ENE (070 degrees) at 15 MPH (13 KT):0
Visibility: 1 1/2 mile(s):0
Sky conditions: overcast
Weather: light rain
Temperature: 35.6 F (2.0 C)
Dew Point: 35.6 F (2.0 C)
Relative Humidity: 100%
Pressure (altimeter): 29.87 in. Hg (1011 hPa)
ob: KAMN 221159Z AUTO 07013KT 1 1/2SM -RA OVC002 02/02 A2987 RMK AO2 T00200020 10022 20018
cycle: 12

Station Type Date Time Source
KAMN TAF UTC NOAA

Error!


Example: see airport list